sensor_id;sensor_type;location;lat;lon;timestamp;temperature;humidity
13808;DHT22;40769;51.512;5.494;2024-01-16T00:00:47;7.90;99.90
13808;DHT22;40769;51.512;5.494;2024-01-16T00:03:13;7.80;99.90
13808;DHT22;40769;51.512;5.494;2024-01-16T00:05:38;8.00;99.90
13808;DHT22;40769;51.512;5.494;2024-01-16T00:08:04;8.10;99.90
13808;DHT22;40769;51.512;5.494;2024-01-16T00:10:30;7.90;99.90
13808;DHT22;40769;51.512;5.494;2024-01-16T00:12:56;7.80;99.90
13808;DHT22;40769;51.512;5.494;2024-01-16T00:15:21;7.90;99.90
13808;DHT22;40769;51.512;5.494;2024-01-16T00:17:47;7.60;99.90
13808;DHT22;40769;51.512;5.494;2024-01-16T00:20:13;8.60;99.90
13808;DHT22;40769;51.512;5.494;2024-01-16T00:22:39;7.40;99.90
13808;DHT22;40769;51.512;5.494;2024-01-16T00:25:05;7.40;99.90
13808;DHT22;40769;51.512;5.494;2024-01-16T00:27:30;7.30;99.90
13808;DHT22;40769;51.512;5.494;2024-01-16T00:29:56;7.30;99.90
13808;DHT22;40769;51.512;5.494;2024-01-16T00:32:22;7.30;99.90
13808;DHT22;40769;51.512;5.494;2024-01-16T00:34:47;7.20;99.90
13808;DHT22;40769;51.512;5.494;2024-01-16T00:37:13;7.70;99.90
13808;DHT22;40769;51.512;5.494;2024-01-16T00:39:39;7.30;99.90
13808;DHT22;40769;51.512;5.494;2024-01-16T00:42:04;7.20;99.90
13808;DHT22;40769;51.512;5.494;2024-01-16T00:44:31;7.30;99.90
13808;DHT22;40769;51.512;5.494;2024-01-16T00:46:57;7.30;99.90
13808;DHT22;40769;51.512;5.494;2024-01-16T00:49:22;7.30;99.90
13808;DHT22;40769;51.512;5.494;2024-01-16T00:51:48;7.20;99.90
13808;DHT22;40769;51.512;5.494;2024-01-16T00:54:14;7.10;99.90
13808;DHT22;40769;51.512;5.494;2024-01-16T00:56:41;7.10;99.90
13808;DHT22;40769;51.512;5.494;2024-01-16T00:59:07;7.00;99.90
13808;DHT22;40769;51.512;5.494;2024-01-16T01:01:33;6.90;99.90
13808;DHT22;40769;51.512;5.494;2024-01-16T01:03:58;6.70;99.90
13808;DHT22;40769;51.512;5.494;2024-01-16T01:06:24;7.10;99.90
13808;DHT22;40769;51.512;5.494;2024-01-16T01:08:50;6.80;99.90
13808;DHT22;40769;51.512;5.494;2024-01-16T01:11:16;6.80;99.90
13808;DHT22;40769;51.512;5.494;2024-01-16T01:13:42;6.90;99.90
13808;DHT22;40769;51.512;5.494;2024-01-16T01:16:07;7.00;99.90
13808;DHT22;40769;51.512;5.494;2024-01-16T01:18:34;7.20;99.90
13808;DHT22;40769;51.512;5.494;2024-01-16T01:21:00;7.20;99.90
13808;DHT22;40769;51.512;5.494;2024-01-16T01:23:28;7.50;99.90
13808;DHT22;40769;51.512;5.494;2024-01-16T01:25:54;7.80;99.90
13808;DHT22;40769;51.512;5.494;2024-01-16T01:28:19;7.80;99.90
13808;DHT22;40769;51.512;5.494;2024-01-16T01:30:45;7.80;99.90
13808;DHT22;40769;51.512;5.494;2024-01-16T01:33:13;7.70;99.90
13808;DHT22;40769;51.512;5.494;2024-01-16T01:35:39;7.60;99.90
13808;DHT22;40769;51.512;5.494;2024-01-16T01:38:05;8.00;99.90
13808;DHT22;40769;51.512;5.494;2024-01-16T01:40:33;7.30;99.90
13808;DHT22;40769;51.512;5.494;2024-01-16T01:43:17;7.10;99.90
13808;DHT22;40769;51.512;5.494;2024-01-16T01:45:42;7.70;99.90
13808;DHT22;40769;51.512;5.494;2024-01-16T01:48:08;7.10;99.90
13808;DHT22;40769;51.512;5.494;2024-01-16T01:50:35;6.90;99.90
13808;DHT22;40769;51.512;5.494;2024-01-16T01:53:01;6.80;99.90
13808;DHT22;40769;51.512;5.494;2024-01-16T01:55:27;6.80;99.90
13808;DHT22;40769;51.512;5.494;2024-01-16T01:57:53;6.70;99.90
13808;DHT22;40769;51.512;5.494;2024-01-16T02:00:19;6.90;99.90
13808;DHT22;40769;51.512;5.494;2024-01-16T02:02:45;6.90;99.90
13808;DHT22;40769;51.512;5.494;2024-01-16T02:05:11;7.20;99.90
13808;DHT22;40769;51.512;5.494;2024-01-16T02:07:37;7.50;99.90
13808;DHT22;40769;51.512;5.494;2024-01-16T02:10:03;8.50;99.90
13808;DHT22;40769;51.512;5.494;2024-01-16T02:12:29;7.40;99.90
13808;DHT22;40769;51.512;5.494;2024-01-16T02:14:55;7.40;99.90
13808;DHT22;40769;51.512;5.494;2024-01-16T02:17:21;7.40;99.90
13808;DHT22;40769;51.512;5.494;2024-01-16T02:19:47;7.30;99.90
13808;DHT22;40769;51.512;5.494;2024-01-16T02:22:16;8.60;99.90
13808;DHT22;40769;51.512;5.494;2024-01-16T02:24:44;7.00;99.90
13808;DHT22;40769;51.512;5.494;2024-01-16T02:27:10;6.90;99.90
13808;DHT22;40769;51.512;5.494;2024-01-16T02:29:41;7.00;99.90
13808;DHT22;40769;51.512;5.494;2024-01-16T02:32:07;7.30;99.90
13808;DHT22;40769;51.512;5.494;2024-01-16T02:34:33;6.80;99.90
13808;DHT22;40769;51.512;5.494;2024-01-16T02:36:59;6.70;99.90
13808;DHT22;40769;51.512;5.494;2024-01-16T02:39:24;6.60;99.90
13808;DHT22;40769;51.512;5.494;2024-01-16T02:41:50;6.60;99.90
13808;DHT22;40769;51.512;5.494;2024-01-16T02:44:16;6.50;99.90
13808;DHT22;40769;51.512;5.494;2024-01-16T02:46:41;7.40;99.90
13808;DHT22;40769;51.512;5.494;2024-01-16T02:49:07;6.50;99.90
13808;DHT22;40769;51.512;5.494;2024-01-16T02:51:33;6.70;99.90
13808;DHT22;40769;51.512;5.494;2024-01-16T02:53:58;6.60;99.90
13808;DHT22;40769;51.512;5.494;2024-01-16T02:56:24;6.60;99.90
13808;DHT22;40769;51.512;5.494;2024-01-16T02:58:50;6.50;99.90
13808;DHT22;40769;51.512;5.494;2024-01-16T03:01:15;6.60;99.90
13808;DHT22;40769;51.512;5.494;2024-01-16T03:03:41;6.40;99.90
13808;DHT22;40769;51.512;5.494;2024-01-16T03:06:07;6.30;99.90
13808;DHT22;40769;51.512;5.494;2024-01-16T03:08:32;6.30;99.90
13808;DHT22;40769;51.512;5.494;2024-01-16T03:10:58;6.30;99.90
13808;DHT22;40769;51.512;5.494;2024-01-16T03:13:24;6.30;99.90
13808;DHT22;40769;51.512;5.494;2024-01-16T03:15:49;6.90;99.90
13808;DHT22;40769;51.512;5.494;2024-01-16T03:18:16;6.30;99.90
13808;DHT22;40769;51.512;5.494;2024-01-16T03:20:42;6.30;99.90
13808;DHT22;40769;51.512;5.494;2024-01-16T03:23:08;6.40;99.90
13808;DHT22;40769;51.512;5.494;2024-01-16T03:25:36;6.50;99.90
13808;DHT22;40769;51.512;5.494;2024-01-16T03:28:05;6.60;99.90
13808;DHT22;40769;51.512;5.494;2024-01-16T03:30:33;6.40;99.90
13808;DHT22;40769;51.512;5.494;2024-01-16T03:32:59;7.30;99.90
13808;DHT22;40769;51.512;5.494;2024-01-16T03:35:24;7.70;99.90
13808;DHT22;40769;51.512;5.494;2024-01-16T03:37:50;7.90;99.90
13808;DHT22;40769;51.512;5.494;2024-01-16T03:40:15;7.90;99.90
13808;DHT22;40769;51.512;5.494;2024-01-16T03:42:41;7.80;99.90
13808;DHT22;40769;51.512;5.494;2024-01-16T03:45:07;7.70;99.90
13808;DHT22;40769;51.512;5.494;2024-01-16T03:47:33;7.60;99.90
13808;DHT22;40769;51.512;5.494;2024-01-16T03:49:58;7.40;99.90
13808;DHT22;40769;51.512;5.494;2024-01-16T03:52:24;7.30;99.90
13808;DHT22;40769;51.512;5.494;2024-01-16T03:54:50;7.50;99.90
13808;DHT22;40769;51.512;5.494;2024-01-16T03:57:15;7.10;99.90
13808;DHT22;40769;51.512;5.494;2024-01-16T03:59:41;7.20;99.90
13808;DHT22;40769;51.512;5.494;2024-01-16T04:02:06;7.00;99.90
13808;DHT22;40769;51.512;5.494;2024-01-16T04:04:32;7.00;99.90
13808;DHT22;40769;51.512;5.494;2024-01-16T04:06:58;7.00;99.90
13808;DHT22;40769;51.512;5.494;2024-01-16T04:09:24;7.00;99.90
13808;DHT22;40769;51.512;5.494;2024-01-16T04:11:52;7.30;99.90
13808;DHT22;40769;51.512;5.494;2024-01-16T04:14:18;7.50;99.90
13808;DHT22;40769;51.512;5.494;2024-01-16T04:16:44;7.80;99.90
13808;DHT22;40769;51.512;5.494;2024-01-16T04:19:09;7.80;99.90
13808;DHT22;40769;51.512;5.494;2024-01-16T04:21:36;7.70;99.90
13808;DHT22;40769;51.512;5.494;2024-01-16T04:24:02;7.60;99.90
13808;DHT22;40769;51.512;5.494;2024-01-16T04:26:28;7.40;99.90
13808;DHT22;40769;51.512;5.494;2024-01-16T04:28:53;7.20;99.90
13808;DHT22;40769;51.512;5.494;2024-01-16T04:31:19;7.00;99.90
13808;DHT22;40769;51.512;5.494;2024-01-16T04:33:48;6.90;99.90
13808;DHT22;40769;51.512;5.494;2024-01-16T04:36:14;6.70;99.90
13808;DHT22;40769;51.512;5.494;2024-01-16T04:38:39;6.60;99.90
13808;DHT22;40769;51.512;5.494;2024-01-16T04:41:05;6.50;99.90
13808;DHT22;40769;51.512;5.494;2024-01-16T04:43:31;6.50;99.90
13808;DHT22;40769;51.512;5.494;2024-01-16T04:45:56;6.50;99.90
13808;DHT22;40769;51.512;5.494;2024-01-16T04:48:22;6.40;99.90
13808;DHT22;40769;51.512;5.494;2024-01-16T04:50:47;6.40;99.90
13808;DHT22;40769;51.512;5.494;2024-01-16T04:53:13;6.60;99.90
13808;DHT22;40769;51.512;5.494;2024-01-16T04:55:38;6.70;99.90
13808;DHT22;40769;51.512;5.494;2024-01-16T04:58:04;7.20;99.90
13808;DHT22;40769;51.512;5.494;2024-01-16T05:00:31;7.20;99.90
13808;DHT22;40769;51.512;5.494;2024-01-16T05:02:58;7.30;99.90
13808;DHT22;40769;51.512;5.494;2024-01-16T05:05:24;7.30;99.90
13808;DHT22;40769;51.512;5.494;2024-01-16T05:07:49;7.20;99.90
13808;DHT22;40769;51.512;5.494;2024-01-16T05:10:15;7.00;99.90
13808;DHT22;40769;51.512;5.494;2024-01-16T05:12:41;6.80;99.90
13808;DHT22;40769;51.512;5.494;2024-01-16T05:15:07;6.70;99.90
13808;DHT22;40769;51.512;5.494;2024-01-16T05:17:35;6.60;99.90
13808;DHT22;40769;51.512;5.494;2024-01-16T05:20:02;6.50;99.90
13808;DHT22;40769;51.512;5.494;2024-01-16T05:22:29;6.40;99.90
13808;DHT22;40769;51.512;5.494;2024-01-16T05:24:55;6.40;99.90
13808;DHT22;40769;51.512;5.494;2024-01-16T05:27:20;6.40;99.90
13808;DHT22;40769;51.512;5.494;2024-01-16T05:29:46;6.40;99.90
13808;DHT22;40769;51.512;5.494;2024-01-16T05:32:13;6.60;99.90
13808;DHT22;40769;51.512;5.494;2024-01-16T05:34:39;7.10;99.90
13808;DHT22;40769;51.512;5.494;2024-01-16T05:37:04;6.90;99.90
13808;DHT22;40769;51.512;5.494;2024-01-16T05:39:30;7.10;99.90
13808;DHT22;40769;51.512;5.494;2024-01-16T05:41:56;7.30;99.90
13808;DHT22;40769;51.512;5.494;2024-01-16T05:44:21;7.50;99.90
13808;DHT22;40769;51.512;5.494;2024-01-16T05:46:47;7.60;99.90
13808;DHT22;40769;51.512;5.494;2024-01-16T05:49:13;7.50;99.90
13808;DHT22;40769;51.512;5.494;2024-01-16T05:51:41;7.30;99.90
13808;DHT22;40769;51.512;5.494;2024-01-16T05:54:06;7.00;99.90
13808;DHT22;40769;51.512;5.494;2024-01-16T05:56:32;7.30;99.90
13808;DHT22;40769;51.512;5.494;2024-01-16T05:58:59;6.50;99.90
13808;DHT22;40769;51.512;5.494;2024-01-16T06:01:25;6.40;99.90
13808;DHT22;40769;51.512;5.494;2024-01-16T06:03:52;6.30;99.90
13808;DHT22;40769;51.512;5.494;2024-01-16T06:06:18;6.20;99.90
13808;DHT22;40769;51.512;5.494;2024-01-16T06:08:44;6.10;99.90
13808;DHT22;40769;51.512;5.494;2024-01-16T06:11:10;6.00;99.90
13808;DHT22;40769;51.512;5.494;2024-01-16T06:13:36;6.00;99.90
13808;DHT22;40769;51.512;5.494;2024-01-16T06:16:02;6.10;99.90
13808;DHT22;40769;51.512;5.494;2024-01-16T06:18:28;6.20;99.90
13808;DHT22;40769;51.512;5.494;2024-01-16T06:20:54;6.30;99.90
13808;DHT22;40769;51.512;5.494;2024-01-16T06:23:19;6.40;99.90
13808;DHT22;40769;51.512;5.494;2024-01-16T06:25:45;6.60;99.90
13808;DHT22;40769;51.512;5.494;2024-01-16T06:28:11;6.60;99.90
13808;DHT22;40769;51.512;5.494;2024-01-16T06:30:37;6.60;99.90
13808;DHT22;40769;51.512;5.494;2024-01-16T06:33:03;6.50;99.90
13808;DHT22;40769;51.512;5.494;2024-01-16T06:35:28;6.30;99.90
13808;DHT22;40769;51.512;5.494;2024-01-16T06:37:54;6.10;99.90
13808;DHT22;40769;51.512;5.494;2024-01-16T06:40:19;5.90;99.90
13808;DHT22;40769;51.512;5.494;2024-01-16T06:42:46;5.70;99.90
13808;DHT22;40769;51.512;5.494;2024-01-16T06:45:12;5.60;99.90
13808;DHT22;40769;51.512;5.494;2024-01-16T06:47:38;5.60;99.90
13808;DHT22;40769;51.512;5.494;2024-01-16T06:50:05;6.00;99.90
13808;DHT22;40769;51.512;5.494;2024-01-16T06:52:31;5.50;99.90
13808;DHT22;40769;51.512;5.494;2024-01-16T06:54:57;5.50;99.90
13808;DHT22;40769;51.512;5.494;2024-01-16T06:57:22;5.40;99.90
13808;DHT22;40769;51.512;5.494;2024-01-16T06:59:48;5.30;99.90
13808;DHT22;40769;51.512;5.494;2024-01-16T07:02:14;5.30;99.90
13808;DHT22;40769;51.512;5.494;2024-01-16T07:04:39;5.30;99.90
13808;DHT22;40769;51.512;5.494;2024-01-16T07:07:05;5.40;99.90
13808;DHT22;40769;51.512;5.494;2024-01-16T07:09:31;5.40;99.90
13808;DHT22;40769;51.512;5.494;2024-01-16T07:11:56;5.50;99.90
13808;DHT22;40769;51.512;5.494;2024-01-16T07:14:22;6.70;99.90
13808;DHT22;40769;51.512;5.494;2024-01-16T07:16:47;5.70;99.90
13808;DHT22;40769;51.512;5.494;2024-01-16T07:19:15;5.70;99.90
13808;DHT22;40769;51.512;5.494;2024-01-16T07:21:41;6.00;99.90
13808;DHT22;40769;51.512;5.494;2024-01-16T07:24:06;5.50;99.90
13808;DHT22;40769;51.512;5.494;2024-01-16T07:26:32;5.40;99.90
13808;DHT22;40769;51.512;5.494;2024-01-16T07:28:58;5.30;99.90
13808;DHT22;40769;51.512;5.494;2024-01-16T07:31:25;5.10;99.90
13808;DHT22;40769;51.512;5.494;2024-01-16T07:33:51;5.10;99.90
13808;DHT22;40769;51.512;5.494;2024-01-16T07:36:17;5.10;99.90
13808;DHT22;40769;51.512;5.494;2024-01-16T07:38:42;5.00;99.90
13808;DHT22;40769;51.512;5.494;2024-01-16T07:41:08;4.90;99.90
13808;DHT22;40769;51.512;5.494;2024-01-16T07:43:33;5.00;99.90
13808;DHT22;40769;51.512;5.494;2024-01-16T07:46:00;5.00;99.90
13808;DHT22;40769;51.512;5.494;2024-01-16T07:48:29;5.10;99.90
13808;DHT22;40769;51.512;5.494;2024-01-16T07:50:55;5.20;99.90
13808;DHT22;40769;51.512;5.494;2024-01-16T07:53:20;5.50;99.90
13808;DHT22;40769;51.512;5.494;2024-01-16T07:55:46;5.20;99.90
13808;DHT22;40769;51.512;5.494;2024-01-16T07:58:12;6.20;99.90
13808;DHT22;40769;51.512;5.494;2024-01-16T08:00:38;5.70;99.90
13808;DHT22;40769;51.512;5.494;2024-01-16T08:03:08;5.50;99.90
13808;DHT22;40769;51.512;5.494;2024-01-16T08:05:37;5.50;99.90
13808;DHT22;40769;51.512;5.494;2024-01-16T08:08:03;5.50;99.90
13808;DHT22;40769;51.512;5.494;2024-01-16T08:10:29;5.40;99.90
13808;DHT22;40769;51.512;5.494;2024-01-16T08:12:54;6.00;99.90
13808;DHT22;40769;51.512;5.494;2024-01-16T08:15:24;5.20;99.90
13808;DHT22;40769;51.512;5.494;2024-01-16T08:17:50;5.20;99.90
13808;DHT22;40769;51.512;5.494;2024-01-16T08:20:15;5.20;99.90
13808;DHT22;40769;51.512;5.494;2024-01-16T08:22:43;5.10;99.90
13808;DHT22;40769;51.512;5.494;2024-01-16T08:25:09;6.00;99.90
13808;DHT22;40769;51.512;5.494;2024-01-16T08:27:34;5.20;99.90
13808;DHT22;40769;51.512;5.494;2024-01-16T08:30:00;5.30;99.90
13808;DHT22;40769;51.512;5.494;2024-01-16T08:32:26;5.40;99.90
13808;DHT22;40769;51.512;5.494;2024-01-16T08:34:52;5.50;99.90
13808;DHT22;40769;51.512;5.494;2024-01-16T08:37:19;5.60;99.90
13808;DHT22;40769;51.512;5.494;2024-01-16T08:39:44;5.70;99.90
13808;DHT22;40769;51.512;5.494;2024-01-16T08:42:10;5.90;99.90
13808;DHT22;40769;51.512;5.494;2024-01-16T08:44:38;6.00;99.90
13808;DHT22;40769;51.512;5.494;2024-01-16T08:47:04;6.10;99.90
13808;DHT22;40769;51.512;5.494;2024-01-16T08:49:31;6.10;99.90
13808;DHT22;40769;51.512;5.494;2024-01-16T08:51:57;6.00;99.90
13808;DHT22;40769;51.512;5.494;2024-01-16T08:54:24;5.80;99.90
13808;DHT22;40769;51.512;5.494;2024-01-16T08:56:51;5.70;99.90
13808;DHT22;40769;51.512;5.494;2024-01-16T08:59:17;5.60;99.90
13808;DHT22;40769;51.512;5.494;2024-01-16T09:01:42;5.50;99.90
13808;DHT22;40769;51.512;5.494;2024-01-16T09:04:08;5.40;99.90
13808;DHT22;40769;51.512;5.494;2024-01-16T09:06:34;5.50;99.90
13808;DHT22;40769;51.512;5.494;2024-01-16T09:08:59;5.40;99.90
13808;DHT22;40769;51.512;5.494;2024-01-16T09:11:25;5.40;99.90
13808;DHT22;40769;51.512;5.494;2024-01-16T09:13:51;5.50;99.90
13808;DHT22;40769;51.512;5.494;2024-01-16T09:16:17;5.60;99.90
13808;DHT22;40769;51.512;5.494;2024-01-16T09:18:43;5.70;99.90
13808;DHT22;40769;51.512;5.494;2024-01-16T09:21:08;5.70;99.90
13808;DHT22;40769;51.512;5.494;2024-01-16T09:23:34;5.90;99.90
13808;DHT22;40769;51.512;5.494;2024-01-16T09:25:59;5.90;99.90
13808;DHT22;40769;51.512;5.494;2024-01-16T09:28:25;6.00;99.90
13808;DHT22;40769;51.512;5.494;2024-01-16T09:30:54;6.20;99.90
13808;DHT22;40769;51.512;5.494;2024-01-16T09:33:22;6.20;99.90
13808;DHT22;40769;51.512;5.494;2024-01-16T09:35:48;7.10;99.90
13808;DHT22;40769;51.512;5.494;2024-01-16T09:38:14;6.20;99.90
13808;DHT22;40769;51.512;5.494;2024-01-16T09:40:40;6.10;99.90
13808;DHT22;40769;51.512;5.494;2024-01-16T09:43:06;6.10;99.90
13808;DHT22;40769;51.512;5.494;2024-01-16T09:45:39;6.00;99.90
13808;DHT22;40769;51.512;5.494;2024-01-16T09:48:05;5.90;99.90
13808;DHT22;40769;51.512;5.494;2024-01-16T09:50:31;5.80;99.90
13808;DHT22;40769;51.512;5.494;2024-01-16T09:52:57;5.80;99.90
13808;DHT22;40769;51.512;5.494;2024-01-16T09:55:23;5.80;99.90
13808;DHT22;40769;51.512;5.494;2024-01-16T09:57:51;5.90;99.90
13808;DHT22;40769;51.512;5.494;2024-01-16T10:00:18;6.10;99.90
13808;DHT22;40769;51.512;5.494;2024-01-16T10:02:45;6.20;99.90
13808;DHT22;40769;51.512;5.494;2024-01-16T10:05:12;6.40;99.90
13808;DHT22;40769;51.512;5.494;2024-01-16T10:07:39;6.50;99.90
13808;DHT22;40769;51.512;5.494;2024-01-16T10:10:05;6.60;99.90
13808;DHT22;40769;51.512;5.494;2024-01-16T10:12:31;6.70;99.90
13808;DHT22;40769;51.512;5.494;2024-01-16T10:14:57;6.80;99.90
13808;DHT22;40769;51.512;5.494;2024-01-16T10:17:35;6.80;99.90
13808;DHT22;40769;51.512;5.494;2024-01-16T10:20:01;7.00;99.90
13808;DHT22;40769;51.512;5.494;2024-01-16T10:22:30;7.00;99.90
13808;DHT22;40769;51.512;5.494;2024-01-16T10:25:09;7.10;99.90
13808;DHT22;40769;51.512;5.494;2024-01-16T10:27:38;7.20;99.90
13808;DHT22;40769;51.512;5.494;2024-01-16T10:30:05;7.40;99.90
13808;DHT22;40769;51.512;5.494;2024-01-16T10:32:35;7.60;99.90
13808;DHT22;40769;51.512;5.494;2024-01-16T10:35:11;7.90;99.90
13808;DHT22;40769;51.512;5.494;2024-01-16T10:38:03;8.20;99.90
13808;DHT22;40769;51.512;5.494;2024-01-16T10:40:29;8.30;99.90
13808;DHT22;40769;51.512;5.494;2024-01-16T10:43:00;8.30;99.90
13808;DHT22;40769;51.512;5.494;2024-01-16T10:45:26;8.30;99.90
13808;DHT22;40769;51.512;5.494;2024-01-16T10:48:04;8.20;99.90
13808;DHT22;40769;51.512;5.494;2024-01-16T10:50:31;8.00;99.90
13808;DHT22;40769;51.512;5.494;2024-01-16T10:53:00;8.20;99.90
13808;DHT22;40769;51.512;5.494;2024-01-16T10:55:28;7.90;99.90
13808;DHT22;40769;51.512;5.494;2024-01-16T10:57:56;7.90;99.90
13808;DHT22;40769;51.512;5.494;2024-01-16T11:00:23;7.80;99.90
13808;DHT22;40769;51.512;5.494;2024-01-16T11:03:04;7.80;99.90
13808;DHT22;40769;51.512;5.494;2024-01-16T11:05:32;7.80;99.90
13808;DHT22;40769;51.512;5.494;2024-01-16T11:08:00;7.80;99.90
13808;DHT22;40769;51.512;5.494;2024-01-16T11:10:29;7.80;99.90
13808;DHT22;40769;51.512;5.494;2024-01-16T11:13:00;7.80;99.90
13808;DHT22;40769;51.512;5.494;2024-01-16T11:15:28;8.00;99.90
13808;DHT22;40769;51.512;5.494;2024-01-16T11:17:55;8.00;99.90
13808;DHT22;40769;51.512;5.494;2024-01-16T11:20:22;7.90;99.90
13808;DHT22;40769;51.512;5.494;2024-01-16T11:22:48;7.80;99.90
13808;DHT22;40769;51.512;5.494;2024-01-16T11:25:16;7.80;99.90
13808;DHT22;40769;51.512;5.494;2024-01-16T11:27:44;7.80;99.90
13808;DHT22;40769;51.512;5.494;2024-01-16T11:30:11;8.00;99.90
13808;DHT22;40769;51.512;5.494;2024-01-16T11:32:38;8.10;99.90
13808;DHT22;40769;51.512;5.494;2024-01-16T11:35:06;8.10;99.90
13808;DHT22;40769;51.512;5.494;2024-01-16T11:37:33;8.00;99.90
13808;DHT22;40769;51.512;5.494;2024-01-16T11:40:22;7.90;99.90
13808;DHT22;40769;51.512;5.494;2024-01-16T11:42:53;7.80;99.90
13808;DHT22;40769;51.512;5.494;2024-01-16T11:48:09;7.80;99.90
13808;DHT22;40769;51.512;5.494;2024-01-16T11:50:38;7.70;99.90
13808;DHT22;40769;51.512;5.494;2024-01-16T11:53:04;7.70;99.90
13808;DHT22;40769;51.512;5.494;2024-01-16T11:55:34;7.70;99.90
13808;DHT22;40769;51.512;5.494;2024-01-16T11:58:43;7.60;99.90
13808;DHT22;40769;51.512;5.494;2024-01-16T12:01:11;7.70;99.90
13808;DHT22;40769;51.512;5.494;2024-01-16T12:03:37;7.70;99.90
13808;DHT22;40769;51.512;5.494;2024-01-16T12:06:03;7.60;99.90
13808;DHT22;40769;51.512;5.494;2024-01-16T12:08:32;7.50;99.90
13808;DHT22;40769;51.512;5.494;2024-01-16T12:10:58;7.40;99.90
13808;DHT22;40769;51.512;5.494;2024-01-16T12:13:25;7.30;99.90
13808;DHT22;40769;51.512;5.494;2024-01-16T12:16:03;7.30;99.90
13808;DHT22;40769;51.512;5.494;2024-01-16T12:18:29;7.20;99.90
13808;DHT22;40769;51.512;5.494;2024-01-16T12:20:55;7.10;99.90
13808;DHT22;40769;51.512;5.494;2024-01-16T12:23:21;7.00;99.90
13808;DHT22;40769;51.512;5.494;2024-01-16T12:25:52;5.40;99.90
13808;DHT22;40769;51.512;5.494;2024-01-16T12:28:21;6.80;99.90
13808;DHT22;40769;51.512;5.494;2024-01-16T12:30:50;6.80;99.90
13808;DHT22;40769;51.512;5.494;2024-01-16T12:33:22;6.80;99.90
13808;DHT22;40769;51.512;5.494;2024-01-16T12:35:47;6.80;99.90
13808;DHT22;40769;51.512;5.494;2024-01-16T12:38:14;6.70;99.90
13808;DHT22;40769;51.512;5.494;2024-01-16T12:43:12;6.60;99.90
13808;DHT22;40769;51.512;5.494;2024-01-16T12:45:38;6.70;99.90
13808;DHT22;40769;51.512;5.494;2024-01-16T12:48:04;6.80;99.90
13808;DHT22;40769;51.512;5.494;2024-01-16T12:50:31;6.80;99.90
13808;DHT22;40769;51.512;5.494;2024-01-16T12:53:07;6.80;99.90
13808;DHT22;40769;51.512;5.494;2024-01-16T12:55:38;6.80;99.90
13808;DHT22;40769;51.512;5.494;2024-01-16T12:58:18;7.00;99.90
13808;DHT22;40769;51.512;5.494;2024-01-16T13:00:49;7.20;99.90
13808;DHT22;40769;51.512;5.494;2024-01-16T13:03:16;7.50;99.90
13808;DHT22;40769;51.512;5.494;2024-01-16T13:05:43;7.50;99.90
13808;DHT22;40769;51.512;5.494;2024-01-16T13:08:09;7.50;99.90
13808;DHT22;40769;51.512;5.494;2024-01-16T13:10:35;7.50;99.90
13808;DHT22;40769;51.512;5.494;2024-01-16T13:13:17;7.50;99.90
13808;DHT22;40769;51.512;5.494;2024-01-16T13:15:47;7.50;99.90
13808;DHT22;40769;51.512;5.494;2024-01-16T13:18:32;7.50;99.90
13808;DHT22;40769;51.512;5.494;2024-01-16T13:20:59;7.50;99.90
13808;DHT22;40769;51.512;5.494;2024-01-16T13:23:25;7.50;99.90
13808;DHT22;40769;51.512;5.494;2024-01-16T13:25:52;7.50;99.90
13808;DHT22;40769;51.512;5.494;2024-01-16T13:28:19;7.50;99.90
13808;DHT22;40769;51.512;5.494;2024-01-16T13:30:47;7.40;99.90
13808;DHT22;40769;51.512;5.494;2024-01-16T13:33:13;7.40;99.90
13808;DHT22;40769;51.512;5.494;2024-01-16T13:35:40;7.30;99.90
13808;DHT22;40769;51.512;5.494;2024-01-16T13:38:07;5.90;99.90
13808;DHT22;40769;51.512;5.494;2024-01-16T13:40:34;7.40;99.90
13808;DHT22;40769;51.512;5.494;2024-01-16T13:43:03;7.20;99.90
13808;DHT22;40769;51.512;5.494;2024-01-16T13:45:29;7.30;99.90
13808;DHT22;40769;51.512;5.494;2024-01-16T13:47:55;7.30;99.90
13808;DHT22;40769;51.512;5.494;2024-01-16T13:50:21;7.40;99.90
13808;DHT22;40769;51.512;5.494;2024-01-16T13:52:47;7.50;99.90
13808;DHT22;40769;51.512;5.494;2024-01-16T13:55:13;7.60;99.90
13808;DHT22;40769;51.512;5.494;2024-01-16T13:57:39;7.70;99.90
13808;DHT22;40769;51.512;5.494;2024-01-16T14:00:10;7.70;99.90
13808;DHT22;40769;51.512;5.494;2024-01-16T14:02:41;7.70;99.90
13808;DHT22;40769;51.512;5.494;2024-01-16T14:05:11;7.70;99.90
13808;DHT22;40769;51.512;5.494;2024-01-16T14:07:37;7.60;99.90
13808;DHT22;40769;51.512;5.494;2024-01-16T14:10:14;8.90;99.90
13808;DHT22;40769;51.512;5.494;2024-01-16T14:12:40;7.50;99.90
13808;DHT22;40769;51.512;5.494;2024-01-16T14:15:09;7.60;99.90
13808;DHT22;40769;51.512;5.494;2024-01-16T14:17:48;7.60;99.90
13808;DHT22;40769;51.512;5.494;2024-01-16T14:20:15;7.70;99.90
13808;DHT22;40769;51.512;5.494;2024-01-16T14:22:41;7.70;99.90
13808;DHT22;40769;51.512;5.494;2024-01-16T14:25:08;7.70;99.90
13808;DHT22;40769;51.512;5.494;2024-01-16T14:27:38;7.70;99.90
13808;DHT22;40769;51.512;5.494;2024-01-16T14:30:15;7.60;99.90
13808;DHT22;40769;51.512;5.494;2024-01-16T14:32:42;7.60;99.90
13808;DHT22;40769;51.512;5.494;2024-01-16T14:35:10;7.50;99.90
13808;DHT22;40769;51.512;5.494;2024-01-16T14:37:36;7.40;99.90
13808;DHT22;40769;51.512;5.494;2024-01-16T14:40:04;7.40;99.90
13808;DHT22;40769;51.512;5.494;2024-01-16T14:42:44;7.30;99.90
13808;DHT22;40769;51.512;5.494;2024-01-16T14:45:10;7.30;99.90
13808;DHT22;40769;51.512;5.494;2024-01-16T14:47:39;7.30;99.90
13808;DHT22;40769;51.512;5.494;2024-01-16T14:50:06;7.20;99.90
13808;DHT22;40769;51.512;5.494;2024-01-16T14:52:32;7.30;99.90
13808;DHT22;40769;51.512;5.494;2024-01-16T14:54:59;7.30;99.90
13808;DHT22;40769;51.512;5.494;2024-01-16T14:57:25;7.50;99.90
13808;DHT22;40769;51.512;5.494;2024-01-16T14:59:50;7.60;99.90
13808;DHT22;40769;51.512;5.494;2024-01-16T15:02:16;7.60;99.90
13808;DHT22;40769;51.512;5.494;2024-01-16T15:04:42;7.60;99.90
13808;DHT22;40769;51.512;5.494;2024-01-16T15:07:09;7.50;99.90
13808;DHT22;40769;51.512;5.494;2024-01-16T15:09:35;7.40;99.90
13808;DHT22;40769;51.512;5.494;2024-01-16T15:12:04;7.20;99.90
13808;DHT22;40769;51.512;5.494;2024-01-16T15:14:31;7.20;99.90
13808;DHT22;40769;51.512;5.494;2024-01-16T15:16:57;7.20;99.90
13808;DHT22;40769;51.512;5.494;2024-01-16T15:19:23;7.50;99.90
13808;DHT22;40769;51.512;5.494;2024-01-16T15:21:48;7.30;99.90
13808;DHT22;40769;51.512;5.494;2024-01-16T15:24:14;7.30;99.90
13808;DHT22;40769;51.512;5.494;2024-01-16T15:26:55;7.30;99.90
13808;DHT22;40769;51.512;5.494;2024-01-16T15:29:24;7.40;99.90
13808;DHT22;40769;51.512;5.494;2024-01-16T15:31:51;7.30;99.90
13808;DHT22;40769;51.512;5.494;2024-01-16T15:34:22;7.20;99.90
13808;DHT22;40769;51.512;5.494;2024-01-16T15:36:48;7.20;99.90
13808;DHT22;40769;51.512;5.494;2024-01-16T15:39:14;7.10;99.90
13808;DHT22;40769;51.512;5.494;2024-01-16T15:41:43;7.10;99.90
13808;DHT22;40769;51.512;5.494;2024-01-16T15:44:09;7.10;99.90
13808;DHT22;40769;51.512;5.494;2024-01-16T15:46:58;7.10;99.90
13808;DHT22;40769;51.512;5.494;2024-01-16T15:49:24;7.20;99.90